Impacts METAR Board INFO
IDs:

KPDX - Portland Intl Arpt, OR, US

Updated at: 0723 UTC 11 Dec 2017
Potential Impact None Slight Moderate High
Time10/19Z 10/20Z 10/21Z 10/22Z 10/23Z 11/00Z 11/01Z 11/02Z 11/03Z 11/04Z 11/05Z 11/06Z 11/07Z
VIS10 10 10 10 10 10 10 10 10 10 10 10 10
CIG-- -- -- -- -- -- -- -- -- -- -- -- --
CoverFEWFEWFEWFEWFEWSCTFEWFEWFEWFEWFEWFEWCLR
FltCatVFRVFRVFRVFRVFRVFRVFRVFRVFRVFRVFRVFRVFR
WX--------------------------
WDir080100100110110110110110110110110110
WSpd0 6 15 17 15 18 17 16 15 18 14 13 13
WGst-- -- -- 25 21 24 -- -- -- -- -- -- --
Raw hourly METARs
KPDX 101853Z 00000KT 10SM FEW025 FEW080 FEW260 05/M02 A3045 RMK AO2 SLP311 HZ FEW080 T00501022 $
KPDX 101953Z 08006KT 10SM FEW025 FEW080 FEW260 07/M03 A3042 RMK AO2 SLP302 HZ FEW080 T00671028 $
KPDX 102053Z 10015KT 10SM FEW025 FEW080 FEW260 07/M03 A3040 RMK AO2 SLP295 HZ FEW080 T00671028 56023 $
KPDX 102153Z 10017G25KT 10SM FEW025 FEW080 FEW260 07/M03 A3039 RMK AO2 SLP289 T00671033 $
KPDX 102253Z 11015G21KT 10SM FEW080 FEW260 06/M03 A3037 RMK AO2 SLP285 T00611033 $
KPDX 102353Z 11018G24KT 10SM FEW080 SCT260 04/M03 A3037 RMK AO2 SLP282 T00441033 10072 20028 56013 $
KPDX 110053Z 11017KT 10SM FEW080 FEW260 03/M04 A3036 RMK AO2 SLP281 T00331039 $
KPDX 110153Z 11016KT 10SM FEW080 FEW260 03/M04 A3035 RMK AO2 SLP277 T00331039 $
KPDX 110253Z 11015KT 10SM FEW260 03/M04 A3035 RMK AO2 SLP276 T00281039 56006 $
KPDX 110353Z 11018KT 10SM FEW260 03/M04 A3035 RMK AO2 SLP278 T00331039 $
KPDX 110453Z 11014KT 10SM FEW260 03/M04 A3036 RMK AO2 SLP279 T00331039 $
KPDX 110553Z 11013KT 10SM FEW250 02/M04 A3036 RMK AO2 SLP281 T00221039 10044 20022 53005 $
KPDX 110653Z 11013KT 10SM CLR 02/M03 A3038 RMK AO2 SLP286 T00221033 $